Time;durP1;ratioP1;P1;durP2;ratioP2;P2;SDS_P1;SDS_P2;PMS_P1;PMS_P2;Temp;Humidity;BMP_temperature;BMP_pressure;BME280_temperature;BME280_humidity;BME280_pressure;Samples;Min_cycle;Max_cycle;Signal;HPM_P1;HPM_P2
2023/08/08 00:00:36;;;;;;;5.85;2.03;;;;;;;16.33;61.92;101430.25;5143031;27;20043;-61
2023/08/08 00:03:04;;;;;;;3.80;1.88;;;;;;;16.34;61.89;101425.66;5167605;27;20072;-61
2023/08/08 00:05:32;;;;;;;4.75;1.75;;;;;;;16.33;62.00;101429.44;5126120;28;20122;-60
2023/08/08 00:08:00;;;;;;;4.78;2.00;;;;;;;16.31;61.83;101429.69;5126054;28;20052;-61
2023/08/08 00:10:29;;;;;;;2.45;1.67;;;;;;;16.31;61.90;101420.72;5126212;28;20058;-61
2023/08/08 00:12:57;;;;;;;4.78;1.98;;;;;;;16.30;61.94;101421.78;5125637;28;20051;-61
2023/08/08 00:15:25;;;;;;;5.00;1.60;;;;;;;16.28;61.93;101419.31;5146666;28;20111;-60
2023/08/08 00:17:53;;;;;;;2.97;1.67;;;;;;;16.28;62.09;101419.31;5146552;28;20047;-60
2023/08/08 00:20:21;;;;;;;3.50;1.85;;;;;;;16.28;61.97;101424.75;5146710;28;20104;-61
2023/08/08 00:22:48;;;;;;;4.00;1.50;;;;;;;16.26;62.24;101416.84;5136899;27;20043;-61
2023/08/08 00:25:16;;;;;;;5.43;2.00;;;;;;;16.26;62.06;101430.41;5167419;27;20043;-62
2023/08/08 00:27:46;;;;;;;4.25;2.08;;;;;;;16.25;61.98;101423.34;5136562;28;20043;-60
2023/08/08 00:30:13;;;;;;;3.35;1.80;;;;;;;16.25;62.12;101425.22;5126199;28;20047;-60
2023/08/08 00:32:41;;;;;;;5.10;1.80;;;;;;;16.24;61.90;101429.84;5129064;27;20214;-60
2023/08/08 00:35:10;;;;;;;4.35;1.63;;;;;;;16.24;62.07;101429.00;5150929;27;20048;-60
2023/08/08 00:37:37;;;;;;;4.35;1.90;;;;;;;16.23;62.12;101425.47;5138451;27;20055;-61
2023/08/08 00:40:06;;;;;;;6.82;1.70;;;;;;;16.23;62.08;101428.19;5129912;28;20052;-60
2023/08/08 00:42:34;;;;;;;4.13;1.60;;;;;;;16.23;62.18;101422.75;5136788;27;20047;-60
2023/08/08 00:45:04;;;;;;;4.72;1.90;;;;;;;16.22;62.09;101417.59;5150499;27;20064;-60
2023/08/08 00:47:32;;;;;;;7.97;1.85;;;;;;;16.22;61.98;101417.59;5150445;27;20055;-60
2023/08/08 00:50:01;;;;;;;4.90;1.88;;;;;;;16.21;62.18;101410.53;5154573;27;20042;-60
2023/08/08 00:52:29;;;;;;;5.78;1.90;;;;;;;16.20;62.12;101409.69;5170922;27;20051;-60
2023/08/08 00:54:57;;;;;;;3.25;1.63;;;;;;;16.20;62.21;101417.00;5150194;27;20573;-61
2023/08/08 00:57:25;;;;;;;4.60;1.65;;;;;;;16.19;62.19;101409.94;5157079;27;20057;-61
2023/08/08 00:59:53;;;;;;;6.05;1.70;;;;;;;16.17;62.42;101412.91;5171074;27;20107;-60
2023/08/08 01:02:22;;;;;;;4.78;1.90;;;;;;;16.16;62.42;101402.31;5148587;27;20524;-61
2023/08/08 01:04:51;;;;;;;5.15;2.35;;;;;;;16.14;62.30;101399.84;5129438;28;20040;-61
2023/08/08 01:07:27;;;;;;;4.65;2.42;;;;;;;16.14;62.53;101399.84;5129218;28;20093;-61
2023/08/08 01:09:57;;;;;;;;;;;;;;;16.14;62.58;101399.84;5129951;27;20064;-61
2023/08/08 01:12:26;;;;;;;5.78;1.75;;;;;;;16.11;62.63;101394.91;5128920;28;19964;-61
2023/08/08 01:14:55;;;;;;;3.90;1.80;;;;;;;16.13;62.72;101408.22;5129483;28;20052;-61
2023/08/08 01:17:26;;;;;;;6.72;2.53;;;;;;;16.13;62.87;101405.50;5129207;28;20043;-61
2023/08/08 01:19:54;;;;;;;7.70;2.25;;;;;;;16.13;62.65;101405.50;5129093;27;20055;-61
2023/08/08 01:22:26;;;;;;;6.13;1.90;;;;;;;16.12;62.87;101410.09;5128895;28;20044;-61
2023/08/08 01:24:56;;;;;;;5.55;1.75;;;;;;;16.12;62.67;101401.97;5157323;27;20069;-61
2023/08/08 01:27:24;;;;;;;7.78;2.78;;;;;;;16.10;62.84;101392.44;5157570;27;20492;-61
2023/08/08 01:29:53;;;;;;;3.65;1.50;;;;;;;16.08;62.81;101389.97;5149809;27;20051;-61
2023/08/08 01:32:21;;;;;;;4.28;1.75;;;;;;;16.08;63.02;101395.38;5144770;27;20451;-61
2023/08/08 01:34:49;;;;;;;4.32;2.10;;;;;;;16.10;62.89;101397.84;5148822;27;20111;-61
2023/08/08 01:37:21;;;;;;;6.00;1.88;;;;;;;16.08;63.02;101397.28;5140253;27;20051;-60
2023/08/08 01:39:53;;;;;;;5.13;1.90;;;;;;;16.08;63.10;101403.53;5159608;27;20042;-60
2023/08/08 01:42:23;;;;;;;7.13;1.80;;;;;;;16.06;63.20;101402.94;5170047;27;20050;-60
2023/08/08 01:44:51;;;;;;;6.53;1.92;;;;;;;16.08;63.20;101402.69;5169497;27;20043;-60
2023/08/08 01:47:19;;;;;;;7.85;2.10;;;;;;;16.07;63.21;101404.59;5155119;27;20047;-61
2023/08/08 01:49:47;;;;;;;5.35;1.92;;;;;;;16.05;63.31;101389.63;5136900;27;20043;-60
2023/08/08 01:52:15;;;;;;;5.35;2.33;;;;;;;16.06;63.51;101407.53;5131617;27;20048;-61
2023/08/08 01:54:43;;;;;;;4.38;1.80;;;;;;;16.05;63.44;101397.75;5165238;27;20073;-61
2023/08/08 01:57:11;;;;;;;8.55;2.05;;;;;;;16.05;63.43;101406.72;5169495;27;20050;-61
2023/08/08 01:59:40;;;;;;;5.57;2.05;;;;;;;16.06;63.35;101399.41;5135726;27;20043;-61
2023/08/08 02:02:08;;;;;;;3.42;1.50;;;;;;;16.07;63.34;101390.22;5128490;28;20048;-61
2023/08/08 02:04:36;;;;;;;6.03;2.10;;;;;;;16.05;63.44;101382.31;5128630;28;20044;-60
2023/08/08 02:07:05;;;;;;;5.15;2.25;;;;;;;16.06;63.54;101383.13;5128136;28;20071;-61
2023/08/08 02:09:32;;;;;;;2.90;1.95;;;;;;;16.05;63.51;101379.59;5128447;28;20044;-61
2023/08/08 02:12:00;;;;;;;6.97;2.55;;;;;;;16.05;63.53;101368.75;5128023;27;20043;-61
2023/08/08 02:14:28;;;;;;;5.25;1.67;;;;;;;16.05;63.64;101368.75;5128497;28;20044;-60
2023/08/08 02:16:58;;;;;;;4.50;1.80;;;;;;;16.04;63.68;101371.72;5128115;28;20050;-60
2023/08/08 02:19:25;;;;;;;9.88;1.83;;;;;;;16.04;63.83;101385.28;5128258;28;20047;-61
2023/08/08 02:21:53;;;;;;;5.97;1.90;;;;;;;16.02;64.01;101384.69;5127842;27;20470;-61
2023/08/08 02:24:21;;;;;;;6.50;1.75;;;;;;;16.02;63.87;101385.53;5156972;27;20051;-60
2023/08/08 02:26:49;;;;;;;5.22;1.73;;;;;;;16.01;63.99;101383.06;5149625;27;20108;-61
2023/08/08 02:29:17;;;;;;;7.60;2.30;;;;;;;16.00;64.08;101382.22;5148568;27;20130;-61
2023/08/08 02:31:45;;;;;;;4.03;1.58;;;;;;;16.01;63.97;101373.03;5134150;27;20077;-61
2023/08/08 02:34:14;;;;;;;7.80;2.05;;;;;;;16.01;63.90;101366.78;5142557;27;20047;-61
2023/08/08 02:36:42;;;;;;;6.13;2.60;;;;;;;16.01;63.99;101362.19;5144391;27;20039;-60
2023/08/08 02:39:09;;;;;;;8.10;2.90;;;;;;;16.00;64.05;101357.00;5127632;27;20040;-61
2023/08/08 02:41:37;;;;;;;9.48;2.38;;;;;;;15.99;64.18;101361.59;5127737;28;20048;-60
2023/08/08 02:44:05;;;;;;;6.82;2.10;;;;;;;16.00;64.08;101355.13;5127388;28;20052;-60
2023/08/08 02:46:33;;;;;;;7.97;2.15;;;;;;;15.98;64.06;101359.97;5127268;27;20046;-60
2023/08/08 02:49:01;;;;;;;6.85;1.90;;;;;;;15.97;64.14;101350.19;5128175;27;20447;-60
2023/08/08 02:51:30;;;;;;;8.60;2.53;;;;;;;15.98;64.08;101351.84;5148140;27;20100;-60
2023/08/08 02:53:58;;;;;;;6.38;2.10;;;;;;;15.97;64.33;101346.66;5140050;27;20104;-61
2023/08/08 02:56:25;;;;;;;7.88;2.25;;;;;;;15.96;64.18;101345.84;5147222;27;20096;-61
2023/08/08 02:58:53;;;;;;;6.97;2.38;;;;;;;15.95;64.00;101355.84;5147763;27;20492;-61
2023/08/08 03:01:21;;;;;;;6.72;2.38;;;;;;;15.94;64.65;101350.69;5127562;27;20052;-61
2023/08/08 03:03:49;;;;;;;11.15;3.17;;;;;;;15.94;64.71;101350.69;5127280;28;20047;-61
2023/08/08 03:06:17;;;;;;;10.60;2.90;;;;;;;15.94;64.68;101342.53;5127329;28;20075;-61
2023/08/08 03:08:46;;;;;;;9.30;2.40;;;;;;;15.94;64.58;101350.69;5126689;27;20504;-61
2023/08/08 03:11:14;;;;;;;10.73;2.55;;;;;;;15.93;64.77;101349.84;5127177;28;20047;-61
2023/08/08 03:13:42;;;;;;;6.97;2.55;;;;;;;15.93;64.67;101343.63;5126620;28;20059;-61
2023/08/08 03:16:10;;;;;;;7.88;2.42;;;;;;;15.93;64.92;101351.75;5127114;28;20069;-60
2023/08/08 03:18:37;;;;;;;8.73;2.53;;;;;;;15.91;64.99;101340.31;5126740;28;20054;-60
2023/08/08 03:21:05;;;;;;;7.53;2.42;;;;;;;15.90;65.02;101347.63;5126971;28;20115;-60
2023/08/08 03:23:34;;;;;;;5.43;1.95;;;;;;;15.89;64.87;101351.41;5128223;27;20048;-61
2023/08/08 03:26:03;;;;;;;5.45;1.98;;;;;;;15.89;64.94;101339.75;5138736;27;20043;-60
2023/08/08 03:28:30;;;;;;;4.50;2.10;;;;;;;15.89;65.12;101348.69;5151642;27;20058;-60
2023/08/08 03:30:58;;;;;;;6.50;2.67;;;;;;;15.90;64.97;101344.09;5143625;27;20055;-61
2023/08/08 03:33:26;;;;;;;6.65;2.67;;;;;;;15.91;64.95;101334.91;5134757;27;20072;-61
2023/08/08 03:35:54;;;;;;;5.97;2.30;;;;;;;15.89;65.30;101346.00;5147575;27;20043;-61
2023/08/08 03:38:22;;;;;;;13.07;2.17;;;;;;;15.88;65.36;101344.34;5132735;27;20042;-61
2023/08/08 03:40:49;;;;;;;8.32;2.33;;;;;;;15.87;65.31;101340.00;5126770;28;20086;-61
2023/08/08 03:43:18;;;;;;;9.63;2.28;;;;;;;15.88;65.24;101347.06;5141623;27;20051;-61
2023/08/08 03:45:47;;;;;;;5.57;1.92;;;;;;;15.87;65.44;101339.16;5143709;27;20043;-61
2023/08/08 03:48:15;;;;;;;7.97;2.67;;;;;;;15.85;65.44;101335.88;5167851;27;20125;-60
2023/08/08 03:50:42;;;;;;;9.05;2.65;;;;;;;15.85;65.49;101335.88;5152097;27;20079;-60
2023/08/08 03:53:10;;;;;;;5.80;2.13;;;;;;;15.84;65.77;101337.78;5145265;27;20072;-61
2023/08/08 03:55:38;;;;;;;6.80;2.65;;;;;;;15.84;65.69;101331.53;5126427;27;20067;-60
2023/08/08 03:58:06;;;;;;;11.73;2.78;;;;;;;15.83;65.65;101333.41;5125927;28;20051;-61
2023/08/08 04:00:35;;;;;;;6.72;2.47;;;;;;;15.84;65.64;101326.94;5126287;28;20051;-61
2023/08/08 04:03:03;;;;;;;13.13;2.88;;;;;;;15.84;65.47;101326.09;5126196;28;20050;-61
2023/08/08 04:05:31;;;;;;;6.00;3.10;;;;;;;15.84;65.65;101329.63;5125912;28;20472;-61
2023/08/08 04:07:59;;;;;;;10.77;2.42;;;;;;;15.84;65.62;101331.53;5126014;28;20048;-61
2023/08/08 04:10:27;;;;;;;10.35;3.40;;;;;;;15.83;65.62;101332.59;5125483;28;20077;-61
2023/08/08 04:12:54;;;;;;;7.35;2.70;;;;;;;15.82;65.65;101326.34;5124896;28;20055;-61
2023/08/08 04:15:22;;;;;;;7.82;2.90;;;;;;;15.83;65.71;101335.31;5125565;28;20047;-60
2023/08/08 04:17:51;;;;;;;8.70;2.45;;;;;;;15.83;65.63;101335.31;5125921;28;20089;-61
2023/08/08 04:20:19;;;;;;;6.10;2.42;;;;;;;15.81;65.65;101332.84;5125129;28;20047;-61
2023/08/08 04:22:47;;;;;;;8.00;2.78;;;;;;;15.80;65.47;101330.38;5127952;27;20051;-61
2023/08/08 04:25:16;;;;;;;9.70;3.03;;;;;;;15.81;65.73;101327.41;5167323;27;20547;-60
2023/08/08 04:27:43;;;;;;;9.60;2.92;;;;;;;15.79;65.81;101328.72;5136959;27;20084;-60
2023/08/08 04:30:12;;;;;;;7.82;2.60;;;;;;;15.79;65.75;101326.03;5126045;28;20040;-60
2023/08/08 04:32:39;;;;;;;8.20;3.00;;;;;;;15.79;65.81;101326.03;5127428;28;20080;-60
2023/08/08 04:35:09;;;;;;;7.20;2.65;;;;;;;15.78;65.90;101327.09;5146652;28;20070;-60
2023/08/08 04:37:37;;;;;;;11.80;2.80;;;;;;;15.77;65.92;101328.97;5142961;28;20047;-61
2023/08/08 04:40:05;;;;;;;8.57;3.38;;;;;;;15.77;65.93;101328.16;5164236;27;20103;-61
2023/08/08 04:42:33;;;;;;;12.00;2.72;;;;;;;15.77;65.77;101334.38;5149150;27;20047;-61
2023/08/08 04:45:01;;;;;;;11.85;3.13;;;;;;;15.77;65.46;101330.84;5126080;28;20073;-61
2023/08/08 04:47:29;;;;;;;7.75;2.58;;;;;;;15.77;65.71;101328.97;5125237;28;20479;-62
2023/08/08 04:49:57;;;;;;;9.90;3.22;;;;;;;15.76;65.71;101331.94;5139963;27;20076;-61
2023/08/08 04:52:26;;;;;;;9.80;2.78;;;;;;;15.75;65.67;101331.09;5140165;28;20051;-61
2023/08/08 04:54:54;;;;;;;9.57;2.55;;;;;;;15.74;66.05;101332.16;5144926;28;20450;-61
2023/08/08 04:57:21;;;;;;;7.40;3.30;;;;;;;15.73;66.03;101338.66;5146042;28;20047;-61
2023/08/08 04:59:49;;;;;;;13.85;3.10;;;;;;;15.72;65.97;101337.00;5141795;28;20043;-60
2023/08/08 05:02:17;;;;;;;6.38;2.70;;;;;;;15.73;65.93;101327.00;5125524;28;20416;-60
2023/08/08 05:04:45;;;;;;;9.18;2.30;;;;;;;15.72;66.01;101322.63;5125790;28;20051;-61
2023/08/08 05:07:13;;;;;;;12.75;2.83;;;;;;;15.71;66.12;101324.53;5125426;28;20040;-60
2023/08/08 05:09:42;;;;;;;7.53;2.83;;;;;;;15.70;65.99;101333.72;5125571;28;20044;-61
2023/08/08 05:12:10;;;;;;;11.40;3.13;;;;;;;15.70;65.89;101325.59;5125185;28;20073;-60
2023/08/08 05:14:38;;;;;;;8.07;2.80;;;;;;;15.71;65.82;101332.66;5125394;28;20081;-60
2023/08/08 05:17:06;;;;;;;11.88;3.30;;;;;;;15.71;65.85;101331.84;5125256;28;20040;-60
2023/08/08 05:19:34;;;;;;;8.75;2.95;;;;;;;15.70;65.88;101331.00;5128137;28;20130;-60
2023/08/08 05:22:01;;;;;;;7.20;2.78;;;;;;;15.70;66.06;101333.72;5129155;28;20500;-61
2023/08/08 05:24:29;;;;;;;11.63;3.83;;;;;;;15.69;66.02;101334.78;5160396;27;20043;-61
2023/08/08 05:26:58;;;;;;;8.05;3.15;;;;;;;15.69;66.21;101333.97;5145761;27;20043;-61
2023/08/08 05:29:26;;;;;;;9.85;2.75;;;;;;;15.70;66.04;101336.44;5149481;27;20061;-61
2023/08/08 05:31:54;;;;;;;13.05;3.60;;;;;;;15.70;65.97;101335.63;5132178;27;20097;-61
2023/08/08 05:34:24;;;;;;;9.07;3.13;;;;;;;15.66;66.12;101329.03;5144975;27;20069;-61
2023/08/08 05:36:52;;;;;;;7.57;2.70;;;;;;;15.68;66.07;101338.56;5143104;27;20069;-60
2023/08/08 05:39:39;;;;;;;9.57;3.03;;;;;;;15.68;66.16;101335.84;5152731;27;20051;-60
2023/08/08 05:42:09;;;;;;;7.93;2.22;;;;;;;15.68;66.27;101333.16;5149186;27;20479;-59
2023/08/08 05:44:36;;;;;;;10.80;2.83;;;;;;;15.68;65.94;101333.16;5139770;27;20574;-60
2023/08/08 05:47:05;;;;;;;6.53;2.28;;;;;;;15.69;66.10;101334.78;5128698;28;20047;-61
2023/08/08 05:49:32;;;;;;;12.85;2.90;;;;;;;15.70;66.21;101341.03;5147387;27;20043;-61
2023/08/08 05:52:01;;;;;;;11.60;3.65;;;;;;;15.69;66.26;101342.91;5132985;27;20058;-60
2023/08/08 05:54:29;;;;;;;10.60;3.08;;;;;;;15.70;66.26;101341.03;5128013;28;20055;-61
2023/08/08 05:56:57;;;;;;;10.30;3.47;;;;;;;15.71;66.29;101338.06;5128450;28;20097;-61
2023/08/08 05:59:26;;;;;;;8.98;3.28;;;;;;;15.72;66.19;101338.91;5128069;27;20051;-60
2023/08/08 06:01:54;;;;;;;7.88;3.20;;;;;;;15.72;66.43;101345.16;5128444;28;20044;-61
2023/08/08 06:04:22;;;;;;;10.05;3.22;;;;;;;15.72;66.46;101341.63;5128193;28;20503;-62
2023/08/08 06:06:50;;;;;;;6.40;2.35;;;;;;;15.73;66.36;101343.25;5128456;28;20048;-61
2023/08/08 06:09:18;;;;;;;10.70;3.15;;;;;;;15.72;66.64;101339.72;5128007;27;20051;-60
2023/08/08 06:11:45;;;;;;;11.20;2.80;;;;;;;15.74;66.68;101347.59;5128595;28;20411;-60
2023/08/08 06:14:13;;;;;;;10.05;3.45;;;;;;;15.75;66.52;101346.53;5127799;27;20059;-61
2023/08/08 06:16:42;;;;;;;12.65;3.50;;;;;;;15.75;66.69;101347.38;5128284;28;20101;-60
2023/08/08 06:19:11;;;;;;;8.43;2.58;;;;;;;15.75;66.68;101350.06;5127788;28;20546;-60
2023/08/08 06:21:39;;;;;;;10.27;2.95;;;;;;;15.76;66.61;101345.47;5127734;28;20070;-60
2023/08/08 06:24:07;;;;;;;8.45;2.88;;;;;;;15.77;66.59;101349.84;5152940;27;20050;-60
2023/08/08 06:26:35;;;;;;;13.30;2.97;;;;;;;15.77;66.66;101347.94;5158318;27;20043;-60
2023/08/08 06:29:03;;;;;;;7.60;2.97;;;;;;;15.78;66.75;101363.13;5127248;28;20058;-60
2023/08/08 06:31:31;;;;;;;9.63;3.20;;;;;;;15.80;66.91;101354.75;5127721;27;20070;-61
2023/08/08 06:34:00;;;;;;;8.35;2.75;;;;;;;15.82;66.76;101364.28;5141355;27;20047;-61
2023/08/08 06:36:28;;;;;;;7.50;2.75;;;;;;;15.84;66.82;101358.63;5166900;27;20452;-60
2023/08/08 06:38:56;;;;;;;8.93;2.83;;;;;;;15.86;66.95;101351.91;5151524;27;20049;-61
2023/08/08 06:41:23;;;;;;;10.27;2.83;;;;;;;15.89;66.77;101346.00;5169140;27;20046;-60
2023/08/08 06:43:52;;;;;;;9.93;2.50;;;;;;;15.91;66.84;101352.00;5157178;27;20069;-61
2023/08/08 06:46:20;;;;;;;11.45;3.20;;;;;;;15.93;66.90;101355.28;5129519;27;20043;-60
2023/08/08 06:48:50;;;;;;;8.52;2.42;;;;;;;15.95;67.03;101357.75;5147606;27;20562;-61
2023/08/08 06:51:19;;;;;;;10.20;2.58;;;;;;;15.98;67.08;101361.84;5127419;28;20472;-61
2023/08/08 06:53:47;;;;;;;9.63;2.65;;;;;;;15.99;67.01;101358.06;5127790;27;20088;-61
2023/08/08 06:56:15;;;;;;;7.65;3.05;;;;;;;15.99;67.19;101361.59;5127122;28;20456;-60
2023/08/08 06:58:43;;;;;;;6.78;2.38;;;;;;;16.01;67.18;101367.59;5126676;28;20043;-60
2023/08/08 07:01:11;;;;;;;7.55;3.05;;;;;;;16.04;67.12;101356.28;5127505;28;20493;-60
2023/08/08 07:03:38;;;;;;;7.40;3.20;;;;;;;16.06;66.88;101367.69;5127094;27;20439;-60
2023/08/08 07:06:06;;;;;;;9.05;2.55;;;;;;;16.08;67.24;101353.88;5127226;28;20134;-60
2023/08/08 07:08:36;;;;;;;7.20;2.53;;;;;;;16.08;67.17;101364.75;5126920;28;20039;-60
2023/08/08 07:11:04;;;;;;;9.70;3.40;;;;;;;16.10;67.11;101355.28;5127010;28;20085;-60
2023/08/08 07:13:32;;;;;;;9.10;3.63;;;;;;;16.10;67.16;101359.88;5126478;28;20073;-60
2023/08/08 07:16:00;;;;;;;11.52;2.70;;;;;;;16.09;67.18;101356.34;5127088;28;20047;-60
2023/08/08 07:18:28;;;;;;;7.25;2.90;;;;;;;16.11;67.29;101366.97;5126508;28;20047;-60
2023/08/08 07:20:57;;;;;;;7.15;2.70;;;;;;;16.10;67.37;101354.47;5126887;28;20133;-60
2023/08/08 07:23:24;;;;;;;10.77;3.08;;;;;;;16.09;67.37;101352.81;5139655;27;20070;-60
2023/08/08 07:25:54;;;;;;;9.35;2.55;;;;;;;16.09;67.42;101355.53;5151716;27;20069;-60
2023/08/08 07:28:22;;;;;;;9.77;2.47;;;;;;;16.09;67.43;101352.81;5150909;27;20047;-60
2023/08/08 07:30:50;;;;;;;9.35;3.38;;;;;;;16.10;67.45;101349.03;5153460;27;20046;-60
2023/08/08 07:33:18;;;;;;;7.03;2.55;;;;;;;16.09;67.47;101345.50;5144437;27;20073;-60
2023/08/08 07:35:45;;;;;;;11.98;3.30;;;;;;;16.10;67.43;101352.56;5147147;27;20046;-60
2023/08/08 07:38:13;;;;;;;7.50;2.47;;;;;;;16.11;67.59;101345.25;5133545;27;20073;-61
2023/08/08 07:40:41;;;;;;;8.52;3.17;;;;;;;16.11;67.51;101346.09;5167742;27;20043;-61
2023/08/08 07:43:10;;;;;;;7.60;2.95;;;;;;;16.13;67.58;101341.25;5149307;27;20077;-61
2023/08/08 07:45:38;;;;;;;9.15;2.63;;;;;;;16.14;67.66;101355.63;5144738;27;20083;-61
2023/08/08 07:48:06;;;;;;;8.95;3.20;;;;;;;16.14;67.64;101347.50;5143288;27;20040;-61
2023/08/08 07:50:34;;;;;;;7.57;2.50;;;;;;;16.15;67.63;101349.13;5161241;27;20050;-60
2023/08/08 07:53:02;;;;;;;7.35;2.70;;;;;;;16.15;67.74;101346.41;5141505;27;20043;-60
2023/08/08 07:55:30;;;;;;;10.18;2.55;;;;;;;16.16;67.69;101346.16;5125915;28;20109;-60
2023/08/08 07:57:58;;;;;;;7.22;2.08;;;;;;;16.16;67.70;101351.59;5125695;28;20073;-60
2023/08/08 08:00:27;;;;;;;7.30;3.22;;;;;;;16.16;67.58;101359.72;5126282;28;20051;-60
2023/08/08 08:02:55;;;;;;;7.72;3.10;;;;;;;16.17;67.62;101349.69;5126135;28;20043;-60
2023/08/08 08:05:23;;;;;;;4.93;2.13;;;;;;;16.18;67.61;101357.59;5125970;28;20078;-60
2023/08/08 08:07:51;;;;;;;13.15;4.03;;;;;;;16.19;67.58;101358.41;5146258;28;20104;-60
2023/08/08 08:10:18;;;;;;;7.82;2.38;;;;;;;16.19;67.42;101347.56;5146751;28;20059;-60
2023/08/08 08:12:46;;;;;;;10.18;2.50;;;;;;;16.20;67.34;101352.75;5135874;28;20047;-60
2023/08/08 08:15:14;;;;;;;8.73;2.20;;;;;;;16.18;67.30;101349.47;5126163;28;20047;-60
2023/08/08 08:17:43;;;;;;;7.20;2.05;;;;;;;16.19;67.34;101350.28;5125786;28;20048;-61
2023/08/08 08:20:12;;;;;;;6.57;2.10;;;;;;;16.20;67.19;101357.34;5126080;28;20112;-61
2023/08/08 08:22:40;;;;;;;6.35;2.25;;;;;;;16.18;67.21;101354.88;5125931;27;20047;-61
2023/08/08 08:25:09;;;;;;;9.43;2.67;;;;;;;16.19;67.26;101358.41;5146722;27;20051;-61
2023/08/08 08:27:37;;;;;;;9.15;2.97;;;;;;;16.19;67.15;101353.81;5145468;27;20047;-61
2023/08/08 08:30:06;;;;;;;7.75;2.33;;;;;;;16.20;67.19;101362.78;5146531;28;20047;-61
2023/08/08 08:32:34;;;;;;;7.10;2.42;;;;;;;16.19;67.13;101356.53;5141284;28;20054;-61
2023/08/08 08:35:06;;;;;;;9.63;2.58;;;;;;;16.19;67.07;101358.41;5146681;28;20055;-61
2023/08/08 08:37:34;;;;;;;5.35;2.13;;;;;;;16.20;67.11;101355.47;5135038;28;20079;-60
2023/08/08 08:40:04;;;;;;;5.28;1.83;;;;;;;16.21;67.02;101356.28;5160401;27;20053;-60
2023/08/08 08:42:33;;;;;;;7.40;2.10;;;;;;;16.21;66.96;101350.84;5148959;27;20081;-61
2023/08/08 08:45:03;;;;;;;7.55;2.17;;;;;;;16.21;67.14;101359.81;5125897;28;20044;-61
2023/08/08 08:47:32;;;;;;;10.60;2.30;;;;;;;16.23;67.05;101359.56;5138013;28;20047;-60
2023/08/08 08:50:02;;;;;;;7.85;2.28;;;;;;;16.23;67.04;101356.84;5136645;27;20044;-61
2023/08/08 08:52:31;;;;;;;7.72;2.30;;;;;;;16.23;67.07;101354.13;5125642;28;20113;-60
2023/08/08 08:54:59;;;;;;;13.10;2.72;;;;;;;16.24;67.06;101359.31;5128538;27;20108;-61
2023/08/08 08:57:27;;;;;;;7.00;2.50;;;;;;;16.25;66.92;101354.72;5129130;28;20044;-60
2023/08/08 08:59:54;;;;;;;8.55;2.47;;;;;;;16.25;66.84;101358.25;5129356;28;20076;-62
2023/08/08 09:02:23;;;;;;;8.13;2.15;;;;;;;16.25;66.97;101358.25;5129355;27;20100;-61
2023/08/08 09:04:52;;;;;;;7.53;2.28;;;;;;;16.26;66.95;101369.91;5129407;28;20054;-61
2023/08/08 09:07:24;;;;;;;4.93;2.20;;;;;;;16.27;67.00;101369.69;5129453;28;20051;-61
2023/08/08 09:09:54;;;;;;;5.82;2.15;;;;;;;16.28;66.94;101371.31;5129273;28;20092;-61
2023/08/08 09:12:23;;;;;;;10.10;2.70;;;;;;;16.30;66.80;101370.25;5128823;27;20047;-60
2023/08/08 09:14:56;;;;;;;6.40;1.88;;;;;;;16.30;66.68;101359.41;5129114;28;20047;-61
2023/08/08 09:17:26;;;;;;;6.85;2.20;;;;;;;16.30;66.72;101373.78;5129046;27;20047;-61
2023/08/08 09:20:14;;;;;;;7.32;2.80;;;;;;;16.27;66.90;101369.69;5139314;27;20058;-61
2023/08/08 09:22:41;;;;;;;9.32;2.25;;;;;;;16.31;66.72;101370.00;5149646;27;20100;-61
2023/08/08 09:25:11;;;;;;;8.32;2.10;;;;;;;16.31;66.65;101372.72;5163957;27;20052;-61
2023/08/08 09:27:38;;;;;;;7.43;2.67;;;;;;;16.30;66.72;101368.34;5159709;27;20062;-61
2023/08/08 09:30:09;;;;;;;7.25;2.28;;;;;;;16.32;66.78;101365.41;5149575;27;20088;-60
2023/08/08 09:32:37;;;;;;;7.65;2.78;;;;;;;16.31;66.67;101370.00;5144574;27;20101;-60
2023/08/08 09:35:09;;;;;;;8.00;2.67;;;;;;;16.33;66.72;101369.75;5149738;27;20058;-60
2023/08/08 09:37:38;;;;;;;6.43;2.10;;;;;;;16.32;66.71;101371.66;5137268;27;20035;-61
2023/08/08 09:40:10;;;;;;;9.88;2.20;;;;;;;16.33;66.81;101373.28;5146426;27;20053;-60
2023/08/08 09:42:41;;;;;;;7.07;2.50;;;;;;;16.35;66.76;101375.75;5149022;27;20082;-60
2023/08/08 09:45:10;;;;;;;6.63;2.60;;;;;;;16.33;66.78;101373.28;5142096;27;20044;-60
2023/08/08 09:47:38;;;;;;;7.47;2.53;;;;;;;16.35;66.64;101379.28;5149243;27;20039;-60
2023/08/08 09:50:08;;;;;;;9.88;2.60;;;;;;;16.37;66.57;101373.63;5159187;27;20107;-60
2023/08/08 09:52:38;;;;;;;5.88;2.45;;;;;;;16.37;66.51;101385.28;5146064;27;20073;-61
2023/08/08 09:55:07;;;;;;;7.68;2.33;;;;;;;16.37;66.64;101374.44;5128237;28;20405;-61
2023/08/08 09:57:36;;;;;;;7.07;2.10;;;;;;;16.38;66.37;101372.56;5128221;28;20059;-61
2023/08/08 10:00:11;;;;;;;9.52;2.28;;;;;;;16.37;66.22;101369.00;5128183;28;20036;-61
2023/08/08 10:02:39;;;;;;;8.85;2.65;;;;;;;16.40;66.33;101370.41;5128422;28;20047;-61
2023/08/08 10:05:07;;;;;;;8.80;2.53;;;;;;;16.40;66.43;101365.00;5127850;28;20455;-61
2023/08/08 10:07:35;;;;;;;5.70;2.72;;;;;;;16.42;66.50;101362.84;5127941;28;20406;-61
2023/08/08 10:10:04;;;;;;;8.98;2.83;;;;;;;16.42;66.34;101369.09;5127981;28;20043;-61
2023/08/08 10:12:32;;;;;;;5.75;2.35;;;;;;;16.44;66.35;101360.72;5127795;27;20043;-61
2023/08/08 10:15:01;;;;;;;8.80;2.65;;;;;;;16.46;66.29;101375.66;5128173;28;20160;-61
2023/08/08 10:17:36;;;;;;;8.38;2.65;;;;;;;16.46;66.18;101375.66;5140828;27;20691;-61
2023/08/08 10:20:11;;;;;;;6.78;2.50;;;;;;;16.47;65.85;101371.06;5148391;27;20045;-61
2023/08/08 10:22:44;;;;;;;6.20;2.60;;;;;;;16.47;65.85;101363.75;5166335;27;20110;-61
2023/08/08 10:25:19;;;;;;;12.82;2.42;;;;;;;16.49;65.81;101368.94;5128095;28;20044;-61
2023/08/08 10:27:47;;;;;;;6.63;2.50;;;;;;;16.50;65.79;101363.25;5137516;27;20050;-61
2023/08/08 10:30:15;;;;;;;9.57;2.50;;;;;;;16.51;65.42;101364.06;5148498;27;20070;-61
2023/08/08 10:32:47;;;;;;;8.20;2.97;;;;;;;16.50;65.28;101363.25;5136270;27;20205;-61
2023/08/08 10:35:15;;;;;;;7.85;2.10;;;;;;;16.54;65.26;101371.72;5148391;27;20042;-61
2023/08/08 10:37:53;;;;;;;5.53;2.30;;;;;;;16.56;65.32;101372.28;5135806;27;20051;-61
2023/08/08 10:40:21;;;;;;;8.40;3.38;;;;;;;16.58;65.14;101362.00;5144581;27;20047;-61
2023/08/08 10:42:49;;;;;;;5.63;2.45;;;;;;;16.60;64.92;101374.25;5127461;28;20044;-61
2023/08/08 10:45:17;;;;;;;6.93;2.30;;;;;;;16.62;64.79;101374.00;5129051;27;20070;-61
2023/08/08 10:47:46;;;;;;;7.05;1.88;;;;;;;16.64;64.63;101371.03;5145910;27;20053;-61
2023/08/08 10:50:15;;;;;;;6.32;2.55;;;;;;;16.64;64.54;101371.03;5150554;27;20047;-61
2023/08/08 10:52:55;;;;;;;6.65;2.30;;;;;;;16.64;64.41;101362.91;5167409;27;20181;-61
2023/08/08 10:55:25;;;;;;;6.57;2.30;;;;;;;16.65;64.23;101370.00;5133688;27;20055;-61
2023/08/08 10:57:58;;;;;;;10.38;2.85;;;;;;;16.65;64.21;101367.28;5127098;28;20496;-61
2023/08/08 11:00:30;;;;;;;5.30;2.05;;;;;;;16.66;64.29;101368.94;5127243;28;20047;-61
2023/08/08 11:03:00;;;;;;;7.93;2.35;;;;;;;16.65;64.26;101356.44;5127228;28;20107;-61
2023/08/08 11:05:30;;;;;;;5.10;2.40;;;;;;;16.67;64.21;101362.44;5127209;28;20055;-61
2023/08/08 11:07:59;;;;;;;5.97;1.75;;;;;;;16.68;64.09;101359.47;5127255;27;20065;-61
2023/08/08 11:10:30;;;;;;;4.47;1.80;;;;;;;16.68;63.58;101361.38;5127187;28;20108;-61
2023/08/08 11:12:59;;;;;;;4.68;1.80;;;;;;;16.68;63.35;101345.06;5133474;27;20500;-61
2023/08/08 11:15:28;;;;;;;5.20;1.83;;;;;;;16.70;62.96;101351.06;5132580;27;20111;-61
2023/08/08 11:17:57;;;;;;;4.78;2.10;;;;;;;16.71;63.12;101347.28;5167926;27;20327;-61
2023/08/08 11:20:30;;;;;;;3.42;1.63;;;;;;;16.72;62.78;101343.50;5134912;27;20100;-61
2023/08/08 11:22:58;;;;;;;3.70;1.67;;;;;;;16.73;62.65;101345.97;5132253;27;20108;-61
2023/08/08 11:25:28;;;;;;;5.30;2.20;;;;;;;16.73;62.29;101343.25;5148294;27;20051;-61
2023/08/08 11:27:57;;;;;;;12.98;2.08;;;;;;;16.73;62.36;101340.53;5156266;27;20053;-61
2023/08/08 11:30:29;;;;;;;7.95;2.35;;;;;;;16.74;62.48;101344.06;5147188;27;20458;-61